sensor_id;sensor_type;location;lat;lon;timestamp;P1;durP1;ratioP1;P2;durP2;ratioP2
17091;SDS011;8661;45.700;4.880;2024-01-30T00:02:14;9.13;;;6.97;;
17091;SDS011;8661;45.700;4.880;2024-01-30T00:04:41;8.20;;;5.93;;
17091;SDS011;8661;45.700;4.880;2024-01-30T00:07:08;8.90;;;6.87;;
17091;SDS011;8661;45.700;4.880;2024-01-30T00:09:34;9.97;;;6.70;;
17091;SDS011;8661;45.700;4.880;2024-01-30T00:12:01;8.80;;;6.60;;
17091;SDS011;8661;45.700;4.880;2024-01-30T00:14:29;9.90;;;6.27;;
17091;SDS011;8661;45.700;4.880;2024-01-30T00:16:55;12.80;;;7.00;;
17091;SDS011;8661;45.700;4.880;2024-01-30T00:19:24;12.70;;;7.33;;
17091;SDS011;8661;45.700;4.880;2024-01-30T00:21:50;11.13;;;6.47;;
17091;SDS011;8661;45.700;4.880;2024-01-30T00:24:17;10.67;;;6.27;;
17091;SDS011;8661;45.700;4.880;2024-01-30T00:26:43;8.23;;;6.40;;
17091;SDS011;8661;45.700;4.880;2024-01-30T00:29:10;8.27;;;6.57;;
17091;SDS011;8661;45.700;4.880;2024-01-30T00:31:44;12.40;;;7.53;;
17091;SDS011;8661;45.700;4.880;2024-01-30T00:34:11;13.20;;;7.30;;
17091;SDS011;8661;45.700;4.880;2024-01-30T00:36:39;9.80;;;6.87;;
17091;SDS011;8661;45.700;4.880;2024-01-30T00:39:06;11.87;;;7.17;;
17091;SDS011;8661;45.700;4.880;2024-01-30T00:41:34;13.40;;;6.77;;
17091;SDS011;8661;45.700;4.880;2024-01-30T00:44:01;10.47;;;6.67;;
17091;SDS011;8661;45.700;4.880;2024-01-30T00:46:28;8.67;;;6.33;;
17091;SDS011;8661;45.700;4.880;2024-01-30T00:48:55;10.03;;;6.30;;
17091;SDS011;8661;45.700;4.880;2024-01-30T00:51:22;9.90;;;6.20;;
17091;SDS011;8661;45.700;4.880;2024-01-30T00:53:50;8.40;;;6.63;;
17091;SDS011;8661;45.700;4.880;2024-01-30T00:56:19;9.60;;;6.50;;
17091;SDS011;8661;45.700;4.880;2024-01-30T00:58:46;12.23;;;6.40;;
17091;SDS011;8661;45.700;4.880;2024-01-30T01:01:13;11.57;;;6.47;;
17091;SDS011;8661;45.700;4.880;2024-01-30T01:03:40;12.93;;;6.77;;
17091;SDS011;8661;45.700;4.880;2024-01-30T01:06:08;9.50;;;6.80;;
17091;SDS011;8661;45.700;4.880;2024-01-30T01:08:35;13.27;;;6.83;;
17091;SDS011;8661;45.700;4.880;2024-01-30T01:11:04;11.57;;;6.20;;
17091;SDS011;8661;45.700;4.880;2024-01-30T01:13:30;7.97;;;6.37;;
17091;SDS011;8661;45.700;4.880;2024-01-30T01:15:57;9.33;;;6.37;;
17091;SDS011;8661;45.700;4.880;2024-01-30T01:18:24;10.60;;;6.47;;
17091;SDS011;8661;45.700;4.880;2024-01-30T01:20:52;12.40;;;7.17;;
17091;SDS011;8661;45.700;4.880;2024-01-30T01:23:19;11.50;;;6.27;;
17091;SDS011;8661;45.700;4.880;2024-01-30T01:25:46;10.93;;;6.60;;
17091;SDS011;8661;45.700;4.880;2024-01-30T01:28:14;9.20;;;6.80;;
17091;SDS011;8661;45.700;4.880;2024-01-30T01:30:41;10.37;;;6.50;;
17091;SDS011;8661;45.700;4.880;2024-01-30T01:33:08;8.77;;;6.13;;
17091;SDS011;8661;45.700;4.880;2024-01-30T01:35:35;8.53;;;5.57;;
17091;SDS011;8661;45.700;4.880;2024-01-30T01:38:02;10.97;;;6.43;;
17091;SDS011;8661;45.700;4.880;2024-01-30T01:40:29;9.83;;;6.10;;
17091;SDS011;8661;45.700;4.880;2024-01-30T01:42:56;12.17;;;6.47;;
17091;SDS011;8661;45.700;4.880;2024-01-30T01:45:24;9.70;;;5.87;;
17091;SDS011;8661;45.700;4.880;2024-01-30T01:47:51;9.67;;;6.07;;
17091;SDS011;8661;45.700;4.880;2024-01-30T01:50:19;9.50;;;5.60;;
17091;SDS011;8661;45.700;4.880;2024-01-30T01:52:47;7.90;;;5.77;;
17091;SDS011;8661;45.700;4.880;2024-01-30T01:55:15;6.27;;;5.17;;
17091;SDS011;8661;45.700;4.880;2024-01-30T01:57:43;11.30;;;5.80;;
17091;SDS011;8661;45.700;4.880;2024-01-30T02:00:11;8.83;;;5.33;;
17091;SDS011;8661;45.700;4.880;2024-01-30T02:02:42;8.17;;;5.70;;
17091;SDS011;8661;45.700;4.880;2024-01-30T02:05:11;8.77;;;5.13;;
17091;SDS011;8661;45.700;4.880;2024-01-30T02:07:38;7.57;;;4.67;;
17091;SDS011;8661;45.700;4.880;2024-01-30T02:10:07;5.90;;;4.53;;
17091;SDS011;8661;45.700;4.880;2024-01-30T02:12:34;6.20;;;5.00;;
17091;SDS011;8661;45.700;4.880;2024-01-30T02:15:02;4.87;;;3.97;;
17091;SDS011;8661;45.700;4.880;2024-01-30T02:17:30;6.97;;;4.47;;
17091;SDS011;8661;45.700;4.880;2024-01-30T02:19:58;7.33;;;4.23;;
17091;SDS011;8661;45.700;4.880;2024-01-30T02:22:26;9.70;;;4.77;;
17091;SDS011;8661;45.700;4.880;2024-01-30T02:24:53;7.77;;;4.30;;
17091;SDS011;8661;45.700;4.880;2024-01-30T02:27:20;5.87;;;4.60;;
17091;SDS011;8661;45.700;4.880;2024-01-30T02:29:47;6.27;;;4.03;;
17091;SDS011;8661;45.700;4.880;2024-01-30T02:32:14;8.30;;;4.50;;
17091;SDS011;8661;45.700;4.880;2024-01-30T02:34:41;11.67;;;5.27;;
17091;SDS011;8661;45.700;4.880;2024-01-30T02:37:08;6.37;;;4.50;;
17091;SDS011;8661;45.700;4.880;2024-01-30T02:39:37;6.03;;;4.47;;
17091;SDS011;8661;45.700;4.880;2024-01-30T02:42:04;7.67;;;4.30;;
17091;SDS011;8661;45.700;4.880;2024-01-30T02:44:31;6.83;;;4.30;;
17091;SDS011;8661;45.700;4.880;2024-01-30T02:46:58;6.73;;;4.40;;
17091;SDS011;8661;45.700;4.880;2024-01-30T02:49:25;5.87;;;4.57;;
17091;SDS011;8661;45.700;4.880;2024-01-30T02:51:53;8.23;;;4.40;;
17091;SDS011;8661;45.700;4.880;2024-01-30T02:54:21;7.70;;;4.90;;
17091;SDS011;8661;45.700;4.880;2024-01-30T02:56:50;8.50;;;4.93;;
17091;SDS011;8661;45.700;4.880;2024-01-30T02:59:17;6.43;;;4.70;;
17091;SDS011;8661;45.700;4.880;2024-01-30T03:01:43;7.03;;;4.90;;
17091;SDS011;8661;45.700;4.880;2024-01-30T03:04:11;6.73;;;4.50;;
17091;SDS011;8661;45.700;4.880;2024-01-30T03:06:38;5.60;;;4.60;;
17091;SDS011;8661;45.700;4.880;2024-01-30T03:09:05;6.23;;;4.50;;
17091;SDS011;8661;45.700;4.880;2024-01-30T03:11:32;6.07;;;4.57;;
17091;SDS011;8661;45.700;4.880;2024-01-30T03:14:00;6.60;;;4.53;;
17091;SDS011;8661;45.700;4.880;2024-01-30T03:16:27;6.93;;;4.50;;
17091;SDS011;8661;45.700;4.880;2024-01-30T03:18:54;7.63;;;4.90;;
17091;SDS011;8661;45.700;4.880;2024-01-30T03:21:21;7.37;;;5.10;;
17091;SDS011;8661;45.700;4.880;2024-01-30T03:23:48;5.83;;;4.43;;
17091;SDS011;8661;45.700;4.880;2024-01-30T03:26:15;5.50;;;4.50;;
17091;SDS011;8661;45.700;4.880;2024-01-30T03:28:42;6.00;;;4.80;;
17091;SDS011;8661;45.700;4.880;2024-01-30T03:31:12;7.00;;;4.53;;
17091;SDS011;8661;45.700;4.880;2024-01-30T03:33:40;5.47;;;4.37;;
17091;SDS011;8661;45.700;4.880;2024-01-30T03:36:07;7.93;;;4.87;;
17091;SDS011;8661;45.700;4.880;2024-01-30T03:38:35;6.93;;;4.63;;
17091;SDS011;8661;45.700;4.880;2024-01-30T03:41:02;10.77;;;5.17;;
17091;SDS011;8661;45.700;4.880;2024-01-30T03:43:29;8.27;;;4.83;;
17091;SDS011;8661;45.700;4.880;2024-01-30T03:45:56;6.80;;;4.47;;
17091;SDS011;8661;45.700;4.880;2024-01-30T03:48:24;6.60;;;4.97;;
17091;SDS011;8661;45.700;4.880;2024-01-30T03:50:51;6.43;;;4.80;;
17091;SDS011;8661;45.700;4.880;2024-01-30T03:53:18;6.50;;;5.03;;
17091;SDS011;8661;45.700;4.880;2024-01-30T03:55:45;7.83;;;5.17;;
17091;SDS011;8661;45.700;4.880;2024-01-30T03:58:12;5.03;;;4.53;;
17091;SDS011;8661;45.700;4.880;2024-01-30T04:00:39;6.50;;;5.20;;
17091;SDS011;8661;45.700;4.880;2024-01-30T04:03:06;7.53;;;5.37;;
17091;SDS011;8661;45.700;4.880;2024-01-30T04:05:34;8.37;;;6.23;;
17091;SDS011;8661;45.700;4.880;2024-01-30T04:08:01;12.37;;;6.47;;
17091;SDS011;8661;45.700;4.880;2024-01-30T04:10:28;10.33;;;6.50;;
17091;SDS011;8661;45.700;4.880;2024-01-30T04:12:55;12.37;;;8.80;;
17091;SDS011;8661;45.700;4.880;2024-01-30T04:15:22;15.20;;;8.63;;
17091;SDS011;8661;45.700;4.880;2024-01-30T04:17:49;13.70;;;9.27;;
17091;SDS011;8661;45.700;4.880;2024-01-30T04:20:16;13.30;;;9.70;;
17091;SDS011;8661;45.700;4.880;2024-01-30T04:22:45;16.50;;;10.13;;
17091;SDS011;8661;45.700;4.880;2024-01-30T04:25:12;17.70;;;10.90;;
17091;SDS011;8661;45.700;4.880;2024-01-30T04:27:39;20.93;;;12.40;;
17091;SDS011;8661;45.700;4.880;2024-01-30T04:30:07;16.93;;;11.17;;
17091;SDS011;8661;45.700;4.880;2024-01-30T04:32:37;16.07;;;10.57;;
17091;SDS011;8661;45.700;4.880;2024-01-30T04:35:04;15.47;;;9.77;;
17091;SDS011;8661;45.700;4.880;2024-01-30T04:37:31;14.43;;;10.60;;
17091;SDS011;8661;45.700;4.880;2024-01-30T04:40:00;23.00;;;10.77;;
17091;SDS011;8661;45.700;4.880;2024-01-30T04:42:28;14.80;;;9.90;;
17091;SDS011;8661;45.700;4.880;2024-01-30T04:44:55;14.20;;;11.03;;
17091;SDS011;8661;45.700;4.880;2024-01-30T04:47:21;18.33;;;10.83;;
17091;SDS011;8661;45.700;4.880;2024-01-30T04:49:48;17.57;;;10.83;;
17091;SDS011;8661;45.700;4.880;2024-01-30T04:52:17;16.87;;;11.10;;
17091;SDS011;8661;45.700;4.880;2024-01-30T04:54:44;16.33;;;10.60;;
17091;SDS011;8661;45.700;4.880;2024-01-30T04:57:12;18.73;;;11.20;;
17091;SDS011;8661;45.700;4.880;2024-01-30T04:59:39;17.37;;;11.53;;
17091;SDS011;8661;45.700;4.880;2024-01-30T05:02:06;17.17;;;11.07;;
17091;SDS011;8661;45.700;4.880;2024-01-30T05:04:33;15.57;;;11.13;;
17091;SDS011;8661;45.700;4.880;2024-01-30T05:07:00;20.07;;;12.03;;
17091;SDS011;8661;45.700;4.880;2024-01-30T05:09:27;17.37;;;11.07;;
17091;SDS011;8661;45.700;4.880;2024-01-30T05:11:54;16.87;;;11.63;;
17091;SDS011;8661;45.700;4.880;2024-01-30T05:14:23;15.87;;;11.43;;
17091;SDS011;8661;45.700;4.880;2024-01-30T05:16:50;16.50;;;12.50;;
17091;SDS011;8661;45.700;4.880;2024-01-30T05:19:17;18.17;;;11.83;;
17091;SDS011;8661;45.700;4.880;2024-01-30T05:21:45;15.73;;;11.50;;
17091;SDS011;8661;45.700;4.880;2024-01-30T05:24:12;19.27;;;11.80;;
17091;SDS011;8661;45.700;4.880;2024-01-30T05:26:39;17.70;;;11.13;;
17091;SDS011;8661;45.700;4.880;2024-01-30T05:29:06;17.47;;;12.07;;
17091;SDS011;8661;45.700;4.880;2024-01-30T05:31:35;16.40;;;11.47;;
17091;SDS011;8661;45.700;4.880;2024-01-30T05:34:02;17.43;;;11.90;;
17091;SDS011;8661;45.700;4.880;2024-01-30T05:36:29;17.20;;;11.07;;
17091;SDS011;8661;45.700;4.880;2024-01-30T05:38:55;13.43;;;10.40;;
17091;SDS011;8661;45.700;4.880;2024-01-30T05:41:22;15.33;;;11.07;;
17091;SDS011;8661;45.700;4.880;2024-01-30T05:43:49;15.87;;;11.23;;
17091;SDS011;8661;45.700;4.880;2024-01-30T05:46:18;19.20;;;12.13;;
17091;SDS011;8661;45.700;4.880;2024-01-30T05:48:47;16.00;;;10.80;;
17091;SDS011;8661;45.700;4.880;2024-01-30T05:51:14;15.17;;;10.60;;
17091;SDS011;8661;45.700;4.880;2024-01-30T05:53:40;13.17;;;10.10;;
17091;SDS011;8661;45.700;4.880;2024-01-30T05:56:07;13.30;;;9.33;;
17091;SDS011;8661;45.700;4.880;2024-01-30T05:58:34;13.20;;;9.63;;
17091;SDS011;8661;45.700;4.880;2024-01-30T06:01:02;16.33;;;9.60;;
17091;SDS011;8661;45.700;4.880;2024-01-30T06:03:29;15.37;;;9.40;;
17091;SDS011;8661;45.700;4.880;2024-01-30T06:05:57;14.33;;;9.10;;
17091;SDS011;8661;45.700;4.880;2024-01-30T06:08:24;12.10;;;8.90;;
17091;SDS011;8661;45.700;4.880;2024-01-30T06:10:51;11.77;;;7.53;;
17091;SDS011;8661;45.700;4.880;2024-01-30T06:13:19;13.50;;;8.17;;
17091;SDS011;8661;45.700;4.880;2024-01-30T06:15:46;8.87;;;6.43;;
17091;SDS011;8661;45.700;4.880;2024-01-30T06:18:13;10.20;;;7.33;;
17091;SDS011;8661;45.700;4.880;2024-01-30T06:20:40;8.00;;;6.63;;
17091;SDS011;8661;45.700;4.880;2024-01-30T06:23:08;12.87;;;8.27;;
17091;SDS011;8661;45.700;4.880;2024-01-30T06:25:35;10.87;;;8.13;;
17091;SDS011;8661;45.700;4.880;2024-01-30T06:28:03;13.20;;;8.67;;
17091;SDS011;8661;45.700;4.880;2024-01-30T06:30:30;14.83;;;7.80;;
17091;SDS011;8661;45.700;4.880;2024-01-30T06:32:57;10.10;;;7.33;;
17091;SDS011;8661;45.700;4.880;2024-01-30T06:35:24;11.93;;;6.47;;
17091;SDS011;8661;45.700;4.880;2024-01-30T06:37:51;10.37;;;7.33;;
17091;SDS011;8661;45.700;4.880;2024-01-30T06:40:19;11.83;;;7.87;;
17091;SDS011;8661;45.700;4.880;2024-01-30T06:42:46;10.27;;;7.10;;
17091;SDS011;8661;45.700;4.880;2024-01-30T06:45:13;9.13;;;6.87;;
17091;SDS011;8661;45.700;4.880;2024-01-30T06:47:40;12.40;;;7.37;;
17091;SDS011;8661;45.700;4.880;2024-01-30T06:50:08;11.97;;;7.50;;
17091;SDS011;8661;45.700;4.880;2024-01-30T06:52:35;13.73;;;7.40;;
17091;SDS011;8661;45.700;4.880;2024-01-30T06:55:02;10.90;;;7.40;;
17091;SDS011;8661;45.700;4.880;2024-01-30T06:57:30;11.37;;;6.93;;
17091;SDS011;8661;45.700;4.880;2024-01-30T06:59:57;9.60;;;6.53;;
17091;SDS011;8661;45.700;4.880;2024-01-30T07:02:24;11.03;;;6.93;;
17091;SDS011;8661;45.700;4.880;2024-01-30T07:04:51;8.70;;;6.17;;
17091;SDS011;8661;45.700;4.880;2024-01-30T07:07:18;10.57;;;7.73;;
17091;SDS011;8661;45.700;4.880;2024-01-30T07:09:45;14.80;;;9.07;;
17091;SDS011;8661;45.700;4.880;2024-01-30T07:12:14;14.30;;;9.63;;
17091;SDS011;8661;45.700;4.880;2024-01-30T07:14:43;12.23;;;9.53;;
17091;SDS011;8661;45.700;4.880;2024-01-30T07:17:09;13.43;;;8.33;;
17091;SDS011;8661;45.700;4.880;2024-01-30T07:19:36;12.40;;;8.13;;
17091;SDS011;8661;45.700;4.880;2024-01-30T07:22:03;11.63;;;8.43;;
17091;SDS011;8661;45.700;4.880;2024-01-30T07:24:30;13.27;;;8.97;;
17091;SDS011;8661;45.700;4.880;2024-01-30T07:26:57;11.97;;;9.07;;
17091;SDS011;8661;45.700;4.880;2024-01-30T07:29:24;11.47;;;8.33;;
17091;SDS011;8661;45.700;4.880;2024-01-30T07:31:53;12.63;;;9.10;;
17091;SDS011;8661;45.700;4.880;2024-01-30T07:34:19;11.53;;;9.07;;
17091;SDS011;8661;45.700;4.880;2024-01-30T07:36:46;17.40;;;9.13;;
17091;SDS011;8661;45.700;4.880;2024-01-30T07:39:13;12.87;;;9.57;;
17091;SDS011;8661;45.700;4.880;2024-01-30T07:41:40;15.60;;;9.93;;
17091;SDS011;8661;45.700;4.880;2024-01-30T07:44:07;12.50;;;9.10;;
17091;SDS011;8661;45.700;4.880;2024-01-30T07:46:34;12.47;;;9.07;;
17091;SDS011;8661;45.700;4.880;2024-01-30T07:49:02;18.60;;;9.83;;
17091;SDS011;8661;45.700;4.880;2024-01-30T07:51:29;18.40;;;10.13;;
17091;SDS011;8661;45.700;4.880;2024-01-30T07:53:58;18.07;;;10.23;;
17091;SDS011;8661;45.700;4.880;2024-01-30T07:56:25;19.43;;;10.27;;
17091;SDS011;8661;45.700;4.880;2024-01-30T07:58:52;16.80;;;11.00;;
17091;SDS011;8661;45.700;4.880;2024-01-30T08:01:22;26.43;;;12.10;;
17091;SDS011;8661;45.700;4.880;2024-01-30T08:03:52;26.10;;;12.37;;
17091;SDS011;8661;45.700;4.880;2024-01-30T08:06:20;20.00;;;11.87;;
17091;SDS011;8661;45.700;4.880;2024-01-30T08:08:47;24.47;;;14.17;;
17091;SDS011;8661;45.700;4.880;2024-01-30T08:11:14;20.93;;;11.17;;
17091;SDS011;8661;45.700;4.880;2024-01-30T08:13:41;18.67;;;12.23;;
17091;SDS011;8661;45.700;4.880;2024-01-30T08:16:07;19.70;;;11.57;;
17091;SDS011;8661;45.700;4.880;2024-01-30T08:18:34;23.77;;;11.57;;
17091;SDS011;8661;45.700;4.880;2024-01-30T08:21:01;18.57;;;11.50;;
17091;SDS011;8661;45.700;4.880;2024-01-30T08:23:30;19.80;;;11.83;;
17091;SDS011;8661;45.700;4.880;2024-01-30T08:25:57;18.23;;;10.83;;
17091;SDS011;8661;45.700;4.880;2024-01-30T08:28:24;19.53;;;10.77;;
17091;SDS011;8661;45.700;4.880;2024-01-30T08:30:51;17.90;;;10.60;;
17091;SDS011;8661;45.700;4.880;2024-01-30T08:33:18;22.50;;;11.50;;
17091;SDS011;8661;45.700;4.880;2024-01-30T08:35:45;18.57;;;10.47;;
17091;SDS011;8661;45.700;4.880;2024-01-30T08:38:15;16.53;;;10.03;;
17091;SDS011;8661;45.700;4.880;2024-01-30T08:40:43;27.50;;;11.80;;
17091;SDS011;8661;45.700;4.880;2024-01-30T08:43:10;27.87;;;11.83;;
17091;SDS011;8661;45.700;4.880;2024-01-30T08:45:37;25.63;;;12.37;;
17091;SDS011;8661;45.700;4.880;2024-01-30T08:48:05;16.93;;;9.60;;
17091;SDS011;8661;45.700;4.880;2024-01-30T08:50:33;16.10;;;10.03;;
17091;SDS011;8661;45.700;4.880;2024-01-30T08:53:00;16.13;;;9.33;;
17091;SDS011;8661;45.700;4.880;2024-01-30T08:55:26;16.57;;;9.33;;
17091;SDS011;8661;45.700;4.880;2024-01-30T08:57:55;17.17;;;9.90;;
17091;SDS011;8661;45.700;4.880;2024-01-30T09:00:22;13.33;;;9.57;;
17091;SDS011;8661;45.700;4.880;2024-01-30T09:02:48;11.90;;;8.90;;
17091;SDS011;8661;45.700;4.880;2024-01-30T09:05:15;13.33;;;8.70;;
17091;SDS011;8661;45.700;4.880;2024-01-30T09:07:42;11.07;;;8.33;;
17091;SDS011;8661;45.700;4.880;2024-01-30T09:10:09;11.67;;;8.53;;
17091;SDS011;8661;45.700;4.880;2024-01-30T09:12:36;12.50;;;9.20;;
17091;SDS011;8661;45.700;4.880;2024-01-30T09:15:05;11.73;;;8.80;;
17091;SDS011;8661;45.700;4.880;2024-01-30T09:17:31;14.37;;;9.57;;
17091;SDS011;8661;45.700;4.880;2024-01-30T09:19:58;11.93;;;8.67;;
17091;SDS011;8661;45.700;4.880;2024-01-30T09:22:25;13.70;;;9.07;;
17091;SDS011;8661;45.700;4.880;2024-01-30T09:24:52;12.23;;;9.13;;
17091;SDS011;8661;45.700;4.880;2024-01-30T09:27:19;13.13;;;8.53;;
17091;SDS011;8661;45.700;4.880;2024-01-30T09:29:45;14.37;;;10.00;;
17091;SDS011;8661;45.700;4.880;2024-01-30T09:32:13;13.43;;;9.30;;
17091;SDS011;8661;45.700;4.880;2024-01-30T09:34:40;12.00;;;8.97;;
17091;SDS011;8661;45.700;4.880;2024-01-30T09:37:07;12.93;;;9.47;;
17091;SDS011;8661;45.700;4.880;2024-01-30T09:39:34;12.53;;;8.67;;
17091;SDS011;8661;45.700;4.880;2024-01-30T09:42:02;11.80;;;9.13;;
17091;SDS011;8661;45.700;4.880;2024-01-30T09:44:34;16.07;;;9.07;;
17091;SDS011;8661;45.700;4.880;2024-01-30T09:47:02;13.73;;;8.83;;
17091;SDS011;8661;45.700;4.880;2024-01-30T09:49:32;14.80;;;8.83;;
17091;SDS011;8661;45.700;4.880;2024-01-30T09:52:00;15.17;;;9.10;;
17091;SDS011;8661;45.700;4.880;2024-01-30T09:54:28;12.93;;;8.73;;
17091;SDS011;8661;45.700;4.880;2024-01-30T09:56:56;13.53;;;8.20;;
17091;SDS011;8661;45.700;4.880;2024-01-30T09:59:23;13.20;;;8.73;;
17091;SDS011;8661;45.700;4.880;2024-01-30T10:01:50;11.63;;;7.73;;
17091;SDS011;8661;45.700;4.880;2024-01-30T10:04:17;11.70;;;7.53;;
17091;SDS011;8661;45.700;4.880;2024-01-30T10:06:46;11.23;;;7.57;;
17091;SDS011;8661;45.700;4.880;2024-01-30T10:09:14;10.03;;;7.33;;
17091;SDS011;8661;45.700;4.880;2024-01-30T10:11:41;9.33;;;7.20;;
17091;SDS011;8661;45.700;4.880;2024-01-30T10:14:08;11.83;;;6.77;;
17091;SDS011;8661;45.700;4.880;2024-01-30T10:16:35;10.63;;;6.97;;
17091;SDS011;8661;45.700;4.880;2024-01-30T10:19:01;9.60;;;6.53;;
17091;SDS011;8661;45.700;4.880;2024-01-30T10:21:29;11.30;;;7.30;;
17091;SDS011;8661;45.700;4.880;2024-01-30T10:23:57;9.77;;;6.57;;
17091;SDS011;8661;45.700;4.880;2024-01-30T10:26:25;9.30;;;7.03;;
17091;SDS011;8661;45.700;4.880;2024-01-30T10:28:53;10.30;;;6.63;;
17091;SDS011;8661;45.700;4.880;2024-01-30T10:31:20;9.10;;;7.00;;
17091;SDS011;8661;45.700;4.880;2024-01-30T10:33:48;10.50;;;7.60;;
17091;SDS011;8661;45.700;4.880;2024-01-30T10:36:15;10.17;;;6.80;;
17091;SDS011;8661;45.700;4.880;2024-01-30T10:38:43;9.53;;;6.47;;
17091;SDS011;8661;45.700;4.880;2024-01-30T10:41:13;10.30;;;6.93;;
17091;SDS011;8661;45.700;4.880;2024-01-30T10:43:46;9.63;;;7.03;;
17091;SDS011;8661;45.700;4.880;2024-01-30T10:46:19;11.17;;;7.13;;
17091;SDS011;8661;45.700;4.880;2024-01-30T10:48:55;9.73;;;6.30;;
17091;SDS011;8661;45.700;4.880;2024-01-30T10:51:24;10.97;;;6.33;;
17091;SDS011;8661;45.700;4.880;2024-01-30T10:53:53;9.60;;;6.63;;
17091;SDS011;8661;45.700;4.880;2024-01-30T10:56:22;9.90;;;6.83;;
17091;SDS011;8661;45.700;4.880;2024-01-30T10:58:49;7.37;;;6.13;;
17091;SDS011;8661;45.700;4.880;2024-01-30T11:01:17;8.20;;;6.10;;
17091;SDS011;8661;45.700;4.880;2024-01-30T11:03:48;9.00;;;6.50;;
17091;SDS011;8661;45.700;4.880;2024-01-30T11:06:15;7.50;;;6.07;;
17091;SDS011;8661;45.700;4.880;2024-01-30T11:08:43;8.83;;;6.07;;
17091;SDS011;8661;45.700;4.880;2024-01-30T11:11:11;7.97;;;6.13;;
17091;SDS011;8661;45.700;4.880;2024-01-30T11:13:39;8.63;;;6.60;;
17091;SDS011;8661;45.700;4.880;2024-01-30T11:16:08;6.83;;;5.53;;
17091;SDS011;8661;45.700;4.880;2024-01-30T11:18:38;9.03;;;5.70;;
17091;SDS011;8661;45.700;4.880;2024-01-30T11:21:05;10.60;;;5.63;;
17091;SDS011;8661;45.700;4.880;2024-01-30T11:23:33;7.90;;;5.37;;
17091;SDS011;8661;45.700;4.880;2024-01-30T11:26:01;7.30;;;5.40;;
17091;SDS011;8661;45.700;4.880;2024-01-30T11:28:32;8.13;;;5.50;;
17091;SDS011;8661;45.700;4.880;2024-01-30T11:31:05;8.37;;;5.73;;
17091;SDS011;8661;45.700;4.880;2024-01-30T11:33:33;8.50;;;5.53;;
17091;SDS011;8661;45.700;4.880;2024-01-30T11:36:00;11.20;;;5.27;;
17091;SDS011;8661;45.700;4.880;2024-01-30T11:38:28;7.90;;;5.50;;
17091;SDS011;8661;45.700;4.880;2024-01-30T11:40:55;7.30;;;5.50;;
17091;SDS011;8661;45.700;4.880;2024-01-30T11:43:23;5.97;;;5.00;;
17091;SDS011;8661;45.700;4.880;2024-01-30T11:45:50;9.40;;;5.40;;
17091;SDS011;8661;45.700;4.880;2024-01-30T11:48:19;8.70;;;5.40;;
17091;SDS011;8661;45.700;4.880;2024-01-30T11:50:46;6.97;;;5.30;;
17091;SDS011;8661;45.700;4.880;2024-01-30T11:53:13;7.90;;;5.47;;
17091;SDS011;8661;45.700;4.880;2024-01-30T11:55:40;7.43;;;4.97;;
17091;SDS011;8661;45.700;4.880;2024-01-30T11:58:08;8.07;;;5.10;;
17091;SDS011;8661;45.700;4.880;2024-01-30T12:00:35;12.27;;;5.10;;
17091;SDS011;8661;45.700;4.880;2024-01-30T12:03:02;5.70;;;4.43;;
17091;SDS011;8661;45.700;4.880;2024-01-30T12:05:32;5.93;;;4.73;;
17091;SDS011;8661;45.700;4.880;2024-01-30T12:08:00;6.30;;;4.90;;
17091;SDS011;8661;45.700;4.880;2024-01-30T12:10:27;5.97;;;4.80;;
17091;SDS011;8661;45.700;4.880;2024-01-30T12:12:54;6.60;;;4.83;;
17091;SDS011;8661;45.700;4.880;2024-01-30T12:15:21;7.50;;;4.67;;
17091;SDS011;8661;45.700;4.880;2024-01-30T12:17:49;8.10;;;4.90;;
17091;SDS011;8661;45.700;4.880;2024-01-30T12:20:17;6.27;;;4.73;;
17091;SDS011;8661;45.700;4.880;2024-01-30T12:22:48;8.07;;;4.47;;
17091;SDS011;8661;45.700;4.880;2024-01-30T12:25:17;6.37;;;4.97;;
17091;SDS011;8661;45.700;4.880;2024-01-30T12:27:45;7.37;;;4.70;;
17091;SDS011;8661;45.700;4.880;2024-01-30T12:30:15;8.47;;;4.53;;
17091;SDS011;8661;45.700;4.880;2024-01-30T12:32:42;6.30;;;4.57;;
17091;SDS011;8661;45.700;4.880;2024-01-30T12:35:11;6.07;;;4.90;;
17091;SDS011;8661;45.700;4.880;2024-01-30T12:37:39;7.33;;;5.37;;
17091;SDS011;8661;45.700;4.880;2024-01-30T12:40:08;5.90;;;5.00;;
17091;SDS011;8661;45.700;4.880;2024-01-30T12:42:36;6.20;;;5.07;;
17091;SDS011;8661;45.700;4.880;2024-01-30T12:45:04;9.27;;;4.93;;
17091;SDS011;8661;45.700;4.880;2024-01-30T12:47:32;6.20;;;4.73;;
17091;SDS011;8661;45.700;4.880;2024-01-30T12:49:59;7.87;;;5.10;;
17091;SDS011;8661;45.700;4.880;2024-01-30T12:52:26;7.40;;;4.50;;
17091;SDS011;8661;45.700;4.880;2024-01-30T12:54:55;6.40;;;4.40;;
17091;SDS011;8661;45.700;4.880;2024-01-30T12:57:23;6.27;;;4.30;;
17091;SDS011;8661;45.700;4.880;2024-01-30T12:59:50;8.60;;;5.03;;
17091;SDS011;8661;45.700;4.880;2024-01-30T13:02:17;8.27;;;4.60;;
17091;SDS011;8661;45.700;4.880;2024-01-30T13:04:44;5.70;;;4.00;;
17091;SDS011;8661;45.700;4.880;2024-01-30T13:07:12;6.40;;;3.80;;
17091;SDS011;8661;45.700;4.880;2024-01-30T13:09:39;7.60;;;4.07;;
17091;SDS011;8661;45.700;4.880;2024-01-30T13:12:06;6.57;;;3.60;;
17091;SDS011;8661;45.700;4.880;2024-01-30T13:14:34;5.07;;;3.90;;
17091;SDS011;8661;45.700;4.880;2024-01-30T13:17:01;5.33;;;3.77;;
17091;SDS011;8661;45.700;4.880;2024-01-30T13:19:28;5.33;;;4.17;;
17091;SDS011;8661;45.700;4.880;2024-01-30T13:21:55;5.83;;;4.47;;
17091;SDS011;8661;45.700;4.880;2024-01-30T13:24:22;5.60;;;4.27;;
17091;SDS011;8661;45.700;4.880;2024-01-30T13:26:49;6.03;;;3.90;;
17091;SDS011;8661;45.700;4.880;2024-01-30T13:29:18;8.37;;;3.90;;
17091;SDS011;8661;45.700;4.880;2024-01-30T13:31:47;6.23;;;4.20;;
17091;SDS011;8661;45.700;4.880;2024-01-30T13:34:14;5.03;;;4.23;;
17091;SDS011;8661;45.700;4.880;2024-01-30T13:36:41;5.80;;;3.90;;
17091;SDS011;8661;45.700;4.880;2024-01-30T13:39:08;5.60;;;3.87;;
17091;SDS011;8661;45.700;4.880;2024-01-30T13:41:37;4.97;;;4.10;;
17091;SDS011;8661;45.700;4.880;2024-01-30T13:44:04;6.33;;;3.47;;
17091;SDS011;8661;45.700;4.880;2024-01-30T13:46:32;6.30;;;3.53;;
17091;SDS011;8661;45.700;4.880;2024-01-30T13:49:00;5.20;;;3.70;;
17091;SDS011;8661;45.700;4.880;2024-01-30T13:51:27;7.57;;;3.73;;
17091;SDS011;8661;45.700;4.880;2024-01-30T13:53:54;5.30;;;3.43;;
17091;SDS011;8661;45.700;4.880;2024-01-30T13:56:21;4.30;;;3.37;;
17091;SDS011;8661;45.700;4.880;2024-01-30T13:58:48;5.33;;;3.57;;
17091;SDS011;8661;45.700;4.880;2024-01-30T14:01:16;6.03;;;3.43;;
17091;SDS011;8661;45.700;4.880;2024-01-30T14:03:43;4.87;;;3.60;;
17091;SDS011;8661;45.700;4.880;2024-01-30T14:06:11;5.77;;;3.30;;
17091;SDS011;8661;45.700;4.880;2024-01-30T14:08:38;4.67;;;3.30;;
17091;SDS011;8661;45.700;4.880;2024-01-30T14:11:05;4.73;;;3.03;;
17091;SDS011;8661;45.700;4.880;2024-01-30T14:13:32;6.37;;;3.50;;
17091;SDS011;8661;45.700;4.880;2024-01-30T14:15:59;5.50;;;3.77;;
17091;SDS011;8661;45.700;4.880;2024-01-30T14:18:26;5.33;;;3.00;;
17091;SDS011;8661;45.700;4.880;2024-01-30T14:20:53;5.03;;;3.63;;
17091;SDS011;8661;45.700;4.880;2024-01-30T14:23:22;5.23;;;3.40;;
17091;SDS011;8661;45.700;4.880;2024-01-30T14:25:49;7.07;;;5.77;;
17091;SDS011;8661;45.700;4.880;2024-01-30T14:28:17;5.10;;;3.67;;
17091;SDS011;8661;45.700;4.880;2024-01-30T14:30:44;4.03;;;3.03;;
17091;SDS011;8661;45.700;4.880;2024-01-30T14:33:11;4.37;;;2.97;;
17091;SDS011;8661;45.700;4.880;2024-01-30T14:35:39;4.33;;;3.00;;
17091;SDS011;8661;45.700;4.880;2024-01-30T14:38:08;4.00;;;3.00;;
17091;SDS011;8661;45.700;4.880;2024-01-30T14:40:36;5.73;;;3.13;;
17091;SDS011;8661;45.700;4.880;2024-01-30T14:43:04;5.20;;;2.90;;
17091;SDS011;8661;45.700;4.880;2024-01-30T14:45:31;4.43;;;3.03;;
17091;SDS011;8661;45.700;4.880;2024-01-30T14:47:58;4.63;;;2.80;;
17091;SDS011;8661;45.700;4.880;2024-01-30T14:50:25;3.97;;;3.00;;
17091;SDS011;8661;45.700;4.880;2024-01-30T14:52:53;5.17;;;3.23;;
17091;SDS011;8661;45.700;4.880;2024-01-30T14:55:20;4.93;;;3.10;;